メインページ
METAR-TAF:

METAR-TAF

空港 :

アムステルダム・スキポール空港

アムステルダム, オランダ

緯度: 52-18N, 経度: 004-46E, 海抜: -4m

現時点の気象観測

当レポートは42分前の14:25(UTC)に作成
南東の風 11kt
気温 7°C
湿度 93%
気圧 1015 hPa
視程10km以上
1,500メートル以下は雲なし、積乱雲なし

METAR: EHAM 181425Z 14011KT CAVOK 07/06 Q1015 NOSIG

時間: 16:07 (15:07 UTC)

予報

当レポートは4時間7分前の11:00(UTC)に作成
予報は18日の 12時(UTC)から 19日の 18時(UTC)まで有効
の風 12kt
視程10km以上
高度800ftの雲は散在している
高度1200ftの千切れ雲あり
18日の 12時(UTC)から 18日の 15時(UTC)まで徐々に
南東の風 16kt
視程10km以上
1,500メートル以下は雲なし、積乱雲なし
19日の 00時(UTC)から 19日の 03時(UTC)まで徐々に
の風 10kt
視程: 6000m
高度1200ftの千切れ雲あり
19日の 03時(UTC)から 19日の 06時(UTC)まで徐々に
視程10km以上
確率 40%
19日の 04時(UTC)から 19日の 12時(UTC)まで
視程: 4000m
高度600ftの千切れ雲あり
19日の 12時(UTC)から 19日の 15時(UTC)まで徐々に
高度1800ftの千切れ雲あり
確率 30% :
19日の 16時(UTC)から 19日の 18時(UTC)まで一時的に
視程: 7000m
高度1200ftの千切れ雲あり
高度1500ftの雲は散在している, 積乱雲.
弱いにわか雨

TAF: EHAM 181100Z 1812/1918 17012KT 9999 SCT008 BKN012 BECMG 1812/1815 14016KT CAVOK BECMG 1900/1903 18010KT 6000 RA BKN012 BECMG 1903/1906 9999 NSW PROB40 1904/1912 4000 BR BKN006 BECMG 1912/1915 BKN018 PROB30 TEMPO 1916/1918 7000 -SHRA BKN012 SCT015CB

4,000以上の空港の気象観測と天気予報(METAR報とTAF報)

利用可能な観測所は地図上に黄色い丸と赤い丸で示す。

丸の上にカーソルを重ねると観測所名を参照できる。

次にクリックすると気象観測と天気予報を参照できる。

マップの切り替え:黒色「×」印の緑ボタンをクリックして拡大、「-」印の緑ボタンをクリックして縮小、緑色の三角印をクリックして隣りの地図に切り替え


METAR-TAF: